Time,TemperatureF,DewpointF,PressureIn,WindDirection,WindDirectionDegrees,WindSpeedMPH,WindSpeedGustMPH,Humidity,HourlyPrecipIn,Conditions,Clouds,dailyrainin,SolarRadiationWatts/m^2,SoftwareType,DateUTC
2013-03-31 00:03:00,34.0,-99.9,-100.00,SSE,150,1.0,3.0,63,0.00,,,0.00,0.000000,,2013-03-31 04:03:00,
2013-03-31 00:13:00,34.0,23.0,-100.00,SSE,150,1.0,3.0,63,0.00,,,0.00,0.000000,,2013-03-31 04:13:00,
2013-03-31 00:23:00,34.0,23.0,-100.00,SSE,150,1.0,3.0,63,0.00,,,0.00,0.000000,,2013-03-31 04:23:00,
2013-03-31 00:53:00,35.0,23.0,-100.00,South,171,2.0,4.0,62,0.00,,,0.00,0.000000,,2013-03-31 04:53:00,
2013-03-31 01:02:00,35.0,23.0,-100.00,South,171,2.0,4.0,62,0.00,,,0.00,0.000000,,2013-03-31 05:02:00,
2013-03-31 01:13:00,35.0,23.0,-100.00,South,171,2.0,4.0,62,0.00,,,0.00,0.000000,,2013-03-31 05:13:00,
2013-03-31 01:22:00,35.0,23.0,-100.00,South,171,2.0,4.0,62,0.00,,,0.00,0.000000,,2013-03-31 05:22:00,
2013-03-31 01:53:00,37.0,23.0,-100.00,West,269,2.0,4.0,57,0.00,,,0.00,0.000000,,2013-03-31 05:53:00,
2013-03-31 02:02:00,37.0,23.0,-100.00,West,269,2.0,4.0,57,0.00,,,0.00,0.000000,,2013-03-31 06:02:00,
2013-03-31 02:12:00,37.0,23.0,-100.00,West,269,2.0,4.0,57,0.00,,,0.00,0.000000,,2013-03-31 06:12:00,
2013-03-31 02:22:00,37.0,23.0,-100.00,West,269,2.0,4.0,57,0.00,,,0.00,0.000000,,2013-03-31 06:22:00,
2013-03-31 02:53:00,38.0,23.0,-100.00,SW,221,2.0,5.0,55,0.00,,,0.00,0.000000,,2013-03-31 06:53:00,
2013-03-31 03:02:00,38.0,23.0,-100.00,SW,221,2.0,5.0,55,0.00,,,0.00,0.000000,,2013-03-31 07:02:00,
2013-03-31 03:12:00,38.0,23.0,-100.00,SW,221,2.0,5.0,55,0.00,,,0.00,0.000000,,2013-03-31 07:12:00,
2013-03-31 03:22:00,38.0,23.0,-100.00,SW,221,2.0,5.0,55,0.00,,,0.00,0.000000,,2013-03-31 07:22:00,
2013-03-31 03:53:00,37.0,23.0,-100.00,ESE,115,1.0,3.0,57,0.00,,,0.00,0.000000,,2013-03-31 07:53:00,
2013-03-31 04:02:00,37.0,23.0,-100.00,ESE,115,1.0,3.0,57,0.00,,,0.00,0.000000,,2013-03-31 08:02:00,
2013-03-31 04:12:00,37.0,23.0,-100.00,ESE,115,1.0,3.0,57,0.00,,,0.00,0.000000,,2013-03-31 08:12:00,
2013-03-31 04:22:00,37.0,23.0,-100.00,ESE,115,1.0,3.0,57,0.00,,,0.00,0.000000,,2013-03-31 08:22:00,
2013-03-31 04:52:00,38.0,22.0,-100.00,SSE,163,1.0,4.0,52,0.00,,,0.00,0.000000,,2013-03-31 08:52:00,
2013-03-31 05:02:00,38.0,22.0,-100.00,SSE,163,1.0,4.0,52,0.00,,,0.00,0.000000,,2013-03-31 09:02:00,
2013-03-31 05:12:00,38.0,22.0,-100.00,SSE,163,1.0,4.0,52,0.00,,,0.00,0.000000,,2013-03-31 09:12:00,
2013-03-31 05:22:00,38.0,22.0,-100.00,SSE,163,1.0,4.0,52,0.00,,,0.00,0.000000,,2013-03-31 09:22:00,
2013-03-31 05:53:00,39.0,22.0,-100.00,South,178,0.0,4.0,50,0.00,,,0.00,0.000000,,2013-03-31 09:53:00,
2013-03-31 06:03:00,39.0,22.0,-100.00,South,178,0.0,4.0,50,0.00,,,0.00,0.000000,,2013-03-31 10:03:00,
2013-03-31 06:13:00,39.0,22.0,-100.00,South,178,0.0,4.0,50,0.00,,,0.00,0.000000,,2013-03-31 10:13:00,
2013-03-31 06:24:00,39.0,22.0,-100.00,South,178,0.0,4.0,50,0.00,,,0.00,0.000000,,2013-03-31 10:24:00,
2013-03-31 06:53:00,40.0,22.0,-100.00,SSE,166,2.0,4.0,48,0.00,,,0.00,0.000000,,2013-03-31 10:53:00,
2013-03-31 07:03:00,40.0,22.0,-100.00,SSE,166,2.0,4.0,48,0.00,,,0.00,0.000000,,2013-03-31 11:03:00,
2013-03-31 07:12:00,40.0,22.0,-100.00,SSE,166,2.0,4.0,48,0.00,,,0.00,0.000000,,2013-03-31 11:12:00,
2013-03-31 07:23:00,40.0,22.0,-100.00,SSE,166,2.0,4.0,48,0.00,,,0.00,0.000000,,2013-03-31 11:23:00,
2013-03-31 07:53:00,42.0,21.0,-100.00,SSE,158,2.0,7.0,43,0.00,,,0.00,3.000000,,2013-03-31 11:53:00,
2013-03-31 08:03:00,42.0,21.0,-100.00,SSE,158,2.0,7.0,43,0.00,,,0.00,3.000000,,2013-03-31 12:03:00,
2013-03-31 08:12:00,42.0,21.0,-100.00,SSE,158,2.0,7.0,43,0.00,,,0.00,3.000000,,2013-03-31 12:12:00,
2013-03-31 08:22:00,42.0,21.0,-100.00,SSE,158,2.0,7.0,43,0.00,,,0.00,3.000000,,2013-03-31 12:22:00,
2013-03-31 08:53:00,46.0,22.0,-100.00,South,173,3.0,7.0,38,0.00,,,0.00,55.000000,,2013-03-31 12:53:00,
2013-03-31 09:02:00,46.0,22.0,-100.00,South,173,3.0,7.0,38,0.00,,,0.00,55.000000,,2013-03-31 13:02:00,
2013-03-31 09:12:00,46.0,22.0,-100.00,South,173,3.0,7.0,38,0.00,,,0.00,55.000000,,2013-03-31 13:12:00,
2013-03-31 09:23:00,46.0,22.0,-100.00,South,173,3.0,7.0,38,0.00,,,0.00,55.000000,,2013-03-31 13:23:00,
2013-03-31 09:53:00,49.0,23.0,-100.00,South,178,4.0,9.0,36,0.00,,,0.00,157.000000,,2013-03-31 13:53:00,
2013-03-31 10:03:00,49.0,23.0,-100.00,South,178,4.0,9.0,36,0.00,,,0.00,157.000000,,2013-03-31 14:03:00,
2013-03-31 10:12:00,49.0,23.0,-100.00,South,178,4.0,9.0,36,0.00,,,0.00,157.000000,,2013-03-31 14:12:00,
2013-03-31 10:22:00,49.0,23.0,-100.00,South,178,4.0,9.0,36,0.00,,,0.00,157.000000,,2013-03-31 14:22:00,
2013-03-31 10:53:00,53.0,25.0,-100.00,SSW,197,6.0,13.0,33,0.00,,,0.00,328.000000,,2013-03-31 14:53:00,
2013-03-31 11:03:00,53.0,25.0,-100.00,SSW,197,6.0,13.0,33,0.00,,,0.00,328.000000,,2013-03-31 15:03:00,
2013-03-31 11:13:00,53.0,25.0,-100.00,SSW,197,6.0,13.0,33,0.00,,,0.00,328.000000,,2013-03-31 15:13:00,
2013-03-31 11:22:00,53.0,25.0,-100.00,SSW,197,6.0,13.0,33,0.00,,,0.00,328.000000,,2013-03-31 15:22:00,
2013-03-31 11:54:00,56.0,26.0,-100.00,SSW,208,5.0,12.0,31,0.00,,,0.00,377.000000,,2013-03-31 15:54:00,
2013-03-31 12:03:00,56.0,26.0,-100.00,SSW,208,5.0,12.0,31,0.00,,,0.00,377.000000,,2013-03-31 16:03:00,
2013-03-31 12:13:00,56.0,26.0,-100.00,SSW,208,5.0,12.0,31,0.00,,,0.00,377.000000,,2013-03-31 16:13:00,
2013-03-31 12:23:00,56.0,26.0,-100.00,SSW,208,5.0,12.0,31,0.00,,,0.00,377.000000,,2013-03-31 16:23:00,
2013-03-31 12:54:00,59.0,27.0,-100.00,SSW,206,5.0,12.0,29,0.00,,,0.00,544.000000,,2013-03-31 16:54:00,
2013-03-31 13:03:00,59.0,27.0,-100.00,SSW,206,5.0,12.0,29,0.00,,,0.00,544.000000,,2013-03-31 17:03:00,
2013-03-31 13:13:00,59.0,27.0,-100.00,SSW,206,5.0,12.0,29,0.00,,,0.00,544.000000,,2013-03-31 17:13:00,
2013-03-31 13:23:00,59.0,27.0,-100.00,SSW,206,5.0,12.0,29,0.00,,,0.00,544.000000,,2013-03-31 17:23:00,
2013-03-31 13:52:00,59.0,30.0,-100.00,South,187,4.0,14.0,33,0.00,,,0.00,370.000000,,2013-03-31 17:52:00,
2013-03-31 14:03:00,59.0,30.0,-100.00,South,187,4.0,14.0,33,0.00,,,0.00,370.000000,,2013-03-31 18:03:00,
2013-03-31 14:13:00,59.0,30.0,-100.00,South,187,4.0,14.0,33,0.00,,,0.00,370.000000,,2013-03-31 18:13:00,
2013-03-31 14:22:00,59.0,30.0,-100.00,South,187,4.0,14.0,33,0.00,,,0.00,370.000000,,2013-03-31 18:22:00,
2013-03-31 14:53:00,57.0,27.0,-100.00,SW,215,7.0,19.0,32,0.00,,,0.00,315.000000,,2013-03-31 18:53:00,
2013-03-31 15:03:00,57.0,27.0,-100.00,SW,215,7.0,19.0,32,0.00,,,0.00,315.000000,,2013-03-31 19:03:00,
2013-03-31 15:12:00,57.0,27.0,-100.00,SW,215,7.0,19.0,32,0.00,,,0.00,315.000000,,2013-03-31 19:12:00,
2013-03-31 15:22:00,57.0,27.0,-100.00,SW,215,7.0,19.0,32,0.00,,,0.00,315.000000,,2013-03-31 19:22:00,
2013-03-31 15:54:00,56.0,30.0,-100.00,SW,221,10.0,21.0,37,0.00,,,0.00,171.000000,,2013-03-31 19:54:00,
2013-03-31 16:03:00,56.0,30.0,-100.00,SW,221,10.0,21.0,37,0.00,,,0.00,171.000000,,2013-03-31 20:03:00,
2013-03-31 16:13:00,56.0,30.0,-100.00,SW,221,10.0,21.0,37,0.00,,,0.00,171.000000,,2013-03-31 20:13:00,
2013-03-31 16:23:00,56.0,30.0,-100.00,SW,221,10.0,21.0,37,0.00,,,0.00,171.000000,,2013-03-31 20:23:00,
2013-03-31 16:53:00,52.0,34.0,-100.00,SSW,207,5.0,19.0,51,0.00,,,0.00,113.000000,,2013-03-31 20:53:00,
2013-03-31 17:03:00,52.0,34.0,-100.00,SSW,207,5.0,19.0,51,0.00,,,0.00,113.000000,,2013-03-31 21:03:00,
2013-03-31 17:13:00,52.0,34.0,-100.00,SSW,207,5.0,19.0,51,0.00,,,0.00,113.000000,,2013-03-31 21:13:00,
2013-03-31 17:22:00,52.0,34.0,-100.00,SSW,207,5.0,19.0,51,0.00,,,0.00,113.000000,,2013-03-31 21:22:00,
2013-03-31 17:54:00,49.0,39.0,-100.00,SSW,208,5.0,15.0,69,0.00,,,0.00,92.000000,,2013-03-31 21:54:00,
2013-03-31 18:04:00,49.0,39.0,-100.00,SSW,208,5.0,15.0,69,0.00,,,0.00,92.000000,,2013-03-31 22:04:00,
2013-03-31 18:13:00,49.0,39.0,-100.00,SSW,208,5.0,15.0,69,0.00,,,0.00,92.000000,,2013-03-31 22:13:00,
2013-03-31 18:24:00,49.0,39.0,-100.00,SSW,208,5.0,15.0,69,0.00,,,0.00,92.000000,,2013-03-31 22:24:00,
2013-03-31 18:53:00,46.0,43.0,-100.00,SSW,210,4.0,11.0,88,0.02,,,0.02,20.000000,,2013-03-31 22:53:00,
2013-03-31 19:03:00,46.0,43.0,-100.00,SSW,210,4.0,11.0,88,0.02,,,0.02,20.000000,,2013-03-31 23:03:00,
2013-03-31 19:13:00,46.0,43.0,-100.00,SSW,210,4.0,11.0,88,0.02,,,0.02,20.000000,,2013-03-31 23:13:00,
2013-03-31 19:22:00,46.0,43.0,-100.00,SSW,210,4.0,11.0,88,0.02,,,0.02,20.000000,,2013-03-31 23:22:00,
2013-03-31 19:54:00,46.0,41.0,-100.00,SSW,203,4.0,8.0,83,0.00,,,0.02,33.000000,,2013-03-31 23:54:00,
2013-03-31 20:03:00,46.0,41.0,-100.00,SSW,203,4.0,8.0,83,0.00,,,0.02,33.000000,,2013-04-01 00:03:00,
2013-03-31 20:13:00,46.0,41.0,-100.00,SSW,203,4.0,8.0,83,0.00,,,0.02,33.000000,,2013-04-01 00:13:00,
2013-03-31 20:22:00,46.0,41.0,-100.00,SSW,203,4.0,8.0,83,0.00,,,0.02,33.000000,,2013-04-01 00:22:00,
2013-03-31 20:53:00,45.0,40.0,-100.00,SSW,211,4.0,9.0,83,0.00,,,0.02,1.000000,,2013-04-01 00:53:00,
2013-03-31 21:03:00,45.0,40.0,-100.00,SSW,211,4.0,9.0,83,0.00,,,0.02,1.000000,,2013-04-01 01:03:00,
2013-03-31 21:13:00,45.0,40.0,-100.00,SSW,211,4.0,9.0,83,0.00,,,0.02,1.000000,,2013-04-01 01:13:00,
2013-03-31 21:23:00,45.0,40.0,-100.00,SSW,211,4.0,9.0,83,0.00,,,0.02,1.000000,,2013-04-01 01:23:00,
2013-03-31 21:53:00,44.0,42.0,-100.00,SW,220,5.0,11.0,91,0.03,,,0.05,0.000000,,2013-04-01 01:53:00,
2013-03-31 22:03:00,44.0,42.0,-100.00,SW,220,5.0,11.0,91,0.03,,,0.05,0.000000,,2013-04-01 02:03:00,
2013-03-31 22:13:00,44.0,42.0,-100.00,SW,220,5.0,11.0,91,0.03,,,0.05,0.000000,,2013-04-01 02:13:00,
2013-03-31 22:23:00,44.0,42.0,-100.00,SW,220,5.0,11.0,91,0.03,,,0.05,0.000000,,2013-04-01 02:23:00,
2013-03-31 22:53:00,44.0,42.0,-100.00,SW,225,5.0,13.0,91,0.00,,,0.05,0.000000,,2013-04-01 02:53:00,
2013-03-31 23:03:00,44.0,42.0,-100.00,SW,225,5.0,13.0,91,0.00,,,0.05,0.000000,,2013-04-01 03:03:00,
2013-03-31 23:12:00,44.0,42.0,-100.00,SW,225,5.0,13.0,91,0.00,,,0.05,0.000000,,2013-04-01 03:12:00,
2013-03-31 23:23:00,44.0,42.0,-100.00,SW,225,5.0,13.0,91,0.00,,,0.05,0.000000,,2013-04-01 03:23:00,
2013-03-31 23:53:00,45.0,42.0,-100.00,SW,225,7.0,14.0,88,0.00,,,0.05,0.000000,,2013-04-01 03:53:00,